createdAt,value
2022-07-27T00:00:30.489Z,96.20
2022-07-27T00:03:17.925Z,96.60
2022-07-27T00:06:06.016Z,96.60
2022-07-27T00:08:52.499Z,96.60
2022-07-27T00:11:39.159Z,96.80
2022-07-27T00:14:25.602Z,96.80
2022-07-27T00:17:12.045Z,97.10
2022-07-27T00:19:58.641Z,97.30
2022-07-27T00:22:46.466Z,97.50
2022-07-27T00:25:33.367Z,97.40
2022-07-27T00:28:20.173Z,97.60
2022-07-27T00:31:07.537Z,97.50
2022-07-27T00:33:54.234Z,97.30
2022-07-27T00:36:40.881Z,97.30
2022-07-27T00:39:28.759Z,97.50
2022-07-27T00:42:15.499Z,97.50
2022-07-27T00:45:02.390Z,97.30
2022-07-27T00:47:54.597Z,97.40
2022-07-27T00:50:43.646Z,97.70
2022-07-27T00:53:32.146Z,98.20
2022-07-27T00:56:21.041Z,98.20
2022-07-27T00:59:09.011Z,98.50
2022-07-27T01:01:58.045Z,98.50
2022-07-27T01:04:47.164Z,98.90
2022-07-27T01:07:34.307Z,99.00
2022-07-27T01:10:20.918Z,99.40
2022-07-27T01:13:12.842Z,99.40
2022-07-27T01:16:00.532Z,99.60
2022-07-27T01:18:47.274Z,99.60
2022-07-27T01:21:36.354Z,99.60
2022-07-27T01:24:23.045Z,99.90
2022-07-27T01:27:09.665Z,99.90
2022-07-27T01:29:56.018Z,99.90
2022-07-27T01:32:42.594Z,99.90
2022-07-27T01:35:29.671Z,99.90
2022-07-27T01:38:17.631Z,99.90
2022-07-27T01:41:04.394Z,99.90
2022-07-27T01:43:50.937Z,99.90
2022-07-27T01:46:37.574Z,99.90
2022-07-27T01:49:24.336Z,99.90
2022-07-27T01:52:11.303Z,99.90
2022-07-27T01:54:59.175Z,99.90
2022-07-27T01:57:46.091Z,99.90
2022-07-27T02:00:32.752Z,99.90
2022-07-27T02:03:19.506Z,99.90
2022-07-27T02:06:06.727Z,99.90
2022-07-27T02:08:53.197Z,99.90
2022-07-27T02:11:58.381Z,99.90
2022-07-27T02:14:45.211Z,99.90
2022-07-27T02:17:32.067Z,99.90
2022-07-27T02:20:20.357Z,99.90
2022-07-27T02:23:07.057Z,99.90
2022-07-27T02:25:53.507Z,99.90
2022-07-27T02:28:41.426Z,99.90
2022-07-27T02:31:32.782Z,99.90
2022-07-27T02:34:19.798Z,99.90
2022-07-27T02:37:06.088Z,99.90
2022-07-27T02:39:53.642Z,99.90
2022-07-27T02:42:40.495Z,99.90
2022-07-27T02:45:28.096Z,99.90
2022-07-27T02:48:14.601Z,99.90
2022-07-27T02:51:02.865Z,99.90
2022-07-27T02:53:50.218Z,99.90
2022-07-27T02:56:36.589Z,99.90
2022-07-27T02:59:24.189Z,99.90
2022-07-27T03:02:12.576Z,99.90
2022-07-27T03:04:59.205Z,99.90
2022-07-27T03:07:45.670Z,99.90
2022-07-27T03:10:32.325Z,99.90
2022-07-27T03:13:19.702Z,99.90
2022-07-27T03:16:07.374Z,99.90
2022-07-27T03:18:55.326Z,99.90
2022-07-27T03:21:42.035Z,99.90
2022-07-27T03:24:28.471Z,99.90
2022-07-27T03:27:14.939Z,99.90
2022-07-27T03:30:01.507Z,99.90
2022-07-27T03:32:48.869Z,99.90
2022-07-27T03:35:36.973Z,99.90
2022-07-27T03:38:24.044Z,99.90
2022-07-27T03:41:10.705Z,99.90
2022-07-27T03:43:57.269Z,99.90
2022-07-27T03:46:43.718Z,99.90
2022-07-27T03:49:30.363Z,99.90
2022-07-27T03:52:18.591Z,99.90
2022-07-27T03:55:06.136Z,99.90
2022-07-27T03:57:52.617Z,99.90
2022-07-27T04:00:39.154Z,99.90
2022-07-27T04:03:25.692Z,99.90
2022-07-27T04:06:12.147Z,99.90
2022-07-27T04:09:08.643Z,99.90
2022-07-27T04:11:55.887Z,99.90
2022-07-27T04:14:42.522Z,99.90
2022-07-27T04:17:54.310Z,99.90
2022-07-27T04:20:35.594Z,99.90
2022-07-27T04:23:22.037Z,99.90
2022-07-27T04:26:09.700Z,99.90
2022-07-27T04:28:56.896Z,99.90
2022-07-27T04:31:43.326Z,99.90
2022-07-27T04:34:29.805Z,99.90
2022-07-27T04:37:16.435Z,99.90
2022-07-27T04:40:03.713Z,99.90
2022-07-27T04:42:51.469Z,99.90
2022-07-27T04:45:38.211Z,99.90
2022-07-27T04:48:25.189Z,99.90
2022-07-27T04:51:14.909Z,99.90
2022-07-27T04:54:01.484Z,99.90
2022-07-27T04:56:47.921Z,99.90
2022-07-27T04:59:35.682Z,99.90
2022-07-27T05:02:22.460Z,99.90
2022-07-27T05:05:09.782Z,99.90
2022-07-27T05:07:56.182Z,99.90
2022-07-27T05:10:42.697Z,99.90
2022-07-27T05:13:29.074Z,99.90
2022-07-27T05:16:16.953Z,99.90
2022-07-27T05:19:03.575Z,99.90
2022-07-27T05:21:50.550Z,99.90
2022-07-27T05:24:37.144Z,99.90
2022-07-27T05:27:23.549Z,99.90
2022-07-27T05:30:11.594Z,99.90
2022-07-27T05:33:00.974Z,99.90
2022-07-27T05:35:47.284Z,99.90
2022-07-27T05:38:39.163Z,99.90
2022-07-27T05:41:26.925Z,99.90
2022-07-27T05:44:13.901Z,99.90
2022-07-27T05:47:00.501Z,99.90
2022-07-27T05:49:49.266Z,99.90
2022-07-27T05:52:37.465Z,99.90
2022-07-27T05:55:24.313Z,99.90
2022-07-27T05:58:10.858Z,99.90
2022-07-27T06:00:57.739Z,99.90
2022-07-27T06:03:44.413Z,99.90
2022-07-27T06:06:50.401Z,99.90
2022-07-27T06:09:37.894Z,99.90
2022-07-27T06:12:30.076Z,99.90
2022-07-27T06:15:17.220Z,99.90
2022-07-27T06:18:04.404Z,99.90
2022-07-27T06:20:51.130Z,99.90
2022-07-27T06:23:38.925Z,99.90
2022-07-27T06:26:25.780Z,99.90
2022-07-27T06:29:12.766Z,99.90
2022-07-27T06:31:59.861Z,99.90
2022-07-27T06:34:47.348Z,99.90
2022-07-27T06:37:34.392Z,99.90
2022-07-27T06:40:23.250Z,99.90
2022-07-27T06:43:11.868Z,99.90
2022-07-27T06:45:59.405Z,99.90
2022-07-27T06:48:46.492Z,99.90
2022-07-27T06:51:33.040Z,99.90
2022-07-27T06:54:20.046Z,99.90
2022-07-27T06:57:08.017Z,99.90
2022-07-27T06:59:54.434Z,99.90
2022-07-27T07:02:52.192Z,99.90
2022-07-27T07:05:43.599Z,99.90
2022-07-27T07:08:30.645Z,99.90
2022-07-27T07:11:17.036Z,99.90
2022-07-27T07:14:05.235Z,99.90
2022-07-27T07:16:52.255Z,99.90
2022-07-27T07:19:38.696Z,99.90
2022-07-27T07:22:25.573Z,99.90
2022-07-27T07:25:12.453Z,99.90
2022-07-27T07:27:58.791Z,99.90
2022-07-27T07:30:46.691Z,99.90
2022-07-27T07:33:33.168Z,99.90
2022-07-27T07:36:19.630Z,99.90
2022-07-27T07:39:06.063Z,99.90
2022-07-27T07:41:53.545Z,99.90
2022-07-27T07:44:40.117Z,99.90
2022-07-27T07:47:28.486Z,99.90
2022-07-27T07:50:15.421Z,99.90
2022-07-27T07:53:02.121Z,99.90
2022-07-27T07:55:48.558Z,99.90
2022-07-27T07:58:35.630Z,99.90
2022-07-27T08:01:22.222Z,99.90
2022-07-27T08:04:10.820Z,99.90
2022-07-27T08:06:57.338Z,99.90
2022-07-27T08:09:44.278Z,99.90
2022-07-27T08:12:31.302Z,99.10
2022-07-27T08:15:18.592Z,98.40
2022-07-27T08:18:06.035Z,98.40
2022-07-27T08:20:54.372Z,97.90
2022-07-27T08:23:41.162Z,96.70
2022-07-27T08:26:28.030Z,95.70
2022-07-27T08:29:14.786Z,95.30
2022-07-27T08:32:01.794Z,95.30
2022-07-27T08:34:52.823Z,95.00
2022-07-27T08:37:40.891Z,95.20
2022-07-27T08:40:45.647Z,95.70
2022-07-27T08:43:34.053Z,95.50
2022-07-27T08:46:22.565Z,95.30
2022-07-27T08:49:10.099Z,95.70
2022-07-27T08:51:57.310Z,95.90
2022-07-27T08:54:45.481Z,95.30
2022-07-27T08:57:31.985Z,95.30
2022-07-27T09:00:19.566Z,95.00
2022-07-27T09:03:06.889Z,95.10
2022-07-27T09:05:54.931Z,94.70
2022-07-27T09:08:43.923Z,94.30
2022-07-27T09:11:32.484Z,95.00
2022-07-27T09:14:19.262Z,94.50
2022-07-27T09:20:30.463Z,94.40
2022-07-27T09:23:28.093Z,94.20
2022-07-27T09:26:30.398Z,94.00
2022-07-27T09:29:20.016Z,93.80
2022-07-27T09:32:16.358Z,93.50
2022-07-27T09:35:16.927Z,93.40
2022-07-27T09:38:18.993Z,92.70
2022-07-27T09:41:08.089Z,91.80
2022-07-27T09:47:26.951Z,90.20
2022-07-27T09:50:19.628Z,87.00
2022-07-27T09:53:41.556Z,85.50
2022-07-27T09:56:28.727Z,81.40
2022-07-27T09:59:19.646Z,77.50
2022-07-27T10:02:07.155Z,75.40
2022-07-27T10:04:56.562Z,74.60
2022-07-27T10:07:43.563Z,74.30
2022-07-27T10:10:30.126Z,72.50
2022-07-27T10:13:16.505Z,71.80
2022-07-27T10:16:05.443Z,72.10
2022-07-27T10:19:01.121Z,71.40
2022-07-27T10:21:50.959Z,72.10
2022-07-27T10:24:37.677Z,73.20
2022-07-27T10:27:28.998Z,73.90
2022-07-27T10:30:17.482Z,73.10
2022-07-27T10:33:15.860Z,73.20
2022-07-27T10:36:04.206Z,70.50
2022-07-27T10:38:55.543Z,70.10
2022-07-27T10:41:43.843Z,67.40
2022-07-27T10:44:31.481Z,65.50
2022-07-27T10:47:30.009Z,66.40
2022-07-27T10:50:26.075Z,67.50
2022-07-27T10:53:15.297Z,68.00
2022-07-27T10:56:03.778Z,67.20
2022-07-27T10:58:52.387Z,63.70
2022-07-27T11:01:57.175Z,62.10
2022-07-27T11:04:47.227Z,61.70
2022-07-27T11:07:44.576Z,63.10
2022-07-27T11:10:43.759Z,65.80
2022-07-27T11:13:38.596Z,64.50
2022-07-27T11:16:28.579Z,62.30
2022-07-27T11:19:18.569Z,62.30
2022-07-27T11:22:06.783Z,61.90
2022-07-27T11:24:59.478Z,61.10
2022-07-27T11:27:50.047Z,59.40
2022-07-27T11:30:38.263Z,59.00
2022-07-27T11:33:25.315Z,57.70
2022-07-27T11:36:11.733Z,56.30
2022-07-27T11:38:58.132Z,55.10
2022-07-27T11:42:11.507Z,55.30
2022-07-27T11:44:53.537Z,54.10
2022-07-27T11:47:41.836Z,54.10
2022-07-27T11:50:28.600Z,56.00
2022-07-27T11:53:21.450Z,56.50
2022-07-27T11:56:07.961Z,55.10
2022-07-27T11:59:08.937Z,54.90
2022-07-27T12:01:59.041Z,53.40
2022-07-27T12:04:49.270Z,52.40
2022-07-27T12:07:36.978Z,51.00
2022-07-27T12:10:23.700Z,49.30
2022-07-27T12:13:19.579Z,47.80
2022-07-27T12:16:06.499Z,48.30
2022-07-27T12:18:53.038Z,49.00
2022-07-27T12:21:44.244Z,48.80
2022-07-27T12:24:34.954Z,49.40
2022-07-27T12:27:23.171Z,46.50
2022-07-27T12:30:13.013Z,45.30
2022-07-27T12:33:00.150Z,45.50
2022-07-27T12:35:47.417Z,45.70
2022-07-27T12:38:43.611Z,45.10
2022-07-27T12:41:35.284Z,44.60
2022-07-27T12:44:22.173Z,43.60
2022-07-27T12:47:41.979Z,42.40
2022-07-27T12:50:29.748Z,43.40
2022-07-27T12:53:18.264Z,42.30
2022-07-27T12:56:08.882Z,42.20
2022-07-27T12:59:02.645Z,42.40
2022-07-27T13:01:51.316Z,44.40
2022-07-27T13:04:37.912Z,45.80
2022-07-27T13:07:25.976Z,44.00
2022-07-27T13:10:13.037Z,41.60
2022-07-27T13:13:01.421Z,42.10
2022-07-27T13:15:47.838Z,42.00
2022-07-27T13:18:34.411Z,41.30
2022-07-27T13:21:20.920Z,41.50
2022-07-27T13:24:10.004Z,43.90
2022-07-27T13:27:00.423Z,45.50
2022-07-27T13:29:48.580Z,43.90
2022-07-27T13:32:35.194Z,43.10
2022-07-27T13:35:21.832Z,44.80
2022-07-27T13:38:09.246Z,45.80
2022-07-27T13:41:01.587Z,47.00
2022-07-27T13:43:48.017Z,48.20
2022-07-27T13:46:36.321Z,47.80
2022-07-27T13:49:23.819Z,46.20
2022-07-27T13:52:14.861Z,43.30
2022-07-27T13:55:01.746Z,43.30
2022-07-27T13:57:48.218Z,42.50
2022-07-27T14:00:35.137Z,42.90
2022-07-27T14:03:23.060Z,44.80
2022-07-27T14:06:11.208Z,46.30
2022-07-27T14:08:58.148Z,47.80
2022-07-27T14:11:50.942Z,48.70
2022-07-27T14:14:40.267Z,49.80
2022-07-27T14:17:27.155Z,50.00
2022-07-27T14:20:15.403Z,50.00
2022-07-27T14:23:02.558Z,49.80
2022-07-27T14:25:49.085Z,49.30
2022-07-27T14:28:35.801Z,49.60
2022-07-27T14:31:22.437Z,50.40
2022-07-27T14:34:09.423Z,50.40
2022-07-27T14:36:57.368Z,50.80
2022-07-27T14:39:43.704Z,51.30
2022-07-27T14:42:30.334Z,51.00
2022-07-27T14:45:16.785Z,51.40
2022-07-27T14:48:03.212Z,51.60
2022-07-27T14:50:49.672Z,50.90
2022-07-27T14:53:37.585Z,52.30
2022-07-27T14:56:24.265Z,51.70
2022-07-27T14:59:11.237Z,52.30
2022-07-27T15:01:58.670Z,53.00
2022-07-27T15:04:45.849Z,53.40
2022-07-27T15:07:32.554Z,53.10
2022-07-27T15:10:22.021Z,52.80
2022-07-27T15:13:08.509Z,52.90
2022-07-27T15:15:56.212Z,53.40
2022-07-27T15:18:43.508Z,53.40
2022-07-27T15:21:32.517Z,54.30
2022-07-27T15:24:19.050Z,53.80
2022-07-27T15:27:07.006Z,53.20
2022-07-27T15:29:53.369Z,53.00
2022-07-27T15:32:39.752Z,52.60
2022-07-27T15:35:26.372Z,52.60
2022-07-27T15:38:13.371Z,53.60
2022-07-27T15:40:59.897Z,53.40
2022-07-27T15:43:48.686Z,53.90
2022-07-27T15:46:35.547Z,53.70
2022-07-27T15:49:22.490Z,53.40
2022-07-27T15:52:09.331Z,53.40
2022-07-27T15:54:55.802Z,53.60
2022-07-27T15:57:42.344Z,53.60
2022-07-27T16:00:33.097Z,54.00
2022-07-27T16:03:23.044Z,54.20
2022-07-27T16:06:12.281Z,54.30
2022-07-27T16:08:58.759Z,53.90
2022-07-27T16:11:45.365Z,54.00
2022-07-27T16:14:31.704Z,53.70
2022-07-27T16:17:19.558Z,53.40
2022-07-27T16:20:07.974Z,53.50
2022-07-27T16:22:54.634Z,53.30
2022-07-27T16:26:02.752Z,53.80
2022-07-27T16:28:49.635Z,54.00
2022-07-27T16:31:36.217Z,54.70
2022-07-27T16:34:24.304Z,54.30
2022-07-27T16:37:10.913Z,54.10
2022-07-27T16:39:57.334Z,54.30
2022-07-27T16:42:44.094Z,54.10
2022-07-27T16:45:30.626Z,55.00
2022-07-27T16:48:18.567Z,54.70
2022-07-27T16:51:10.267Z,55.10
2022-07-27T16:53:56.807Z,55.50
2022-07-27T16:56:43.180Z,55.70
2022-07-27T16:59:29.807Z,55.90
2022-07-27T17:02:16.456Z,56.10
2022-07-27T17:05:05.038Z,56.40
2022-07-27T17:07:54.208Z,56.40
2022-07-27T17:10:41.934Z,56.20
2022-07-27T17:13:33.808Z,55.80
2022-07-27T17:16:20.955Z,55.40
2022-07-27T17:19:07.942Z,55.70
2022-07-27T17:21:54.595Z,56.00
2022-07-27T17:24:42.603Z,56.30
2022-07-27T17:27:29.343Z,55.90
2022-07-27T17:30:16.221Z,56.20
2022-07-27T17:33:02.744Z,56.10
2022-07-27T17:35:49.344Z,55.30
2022-07-27T17:38:35.746Z,55.00
2022-07-27T17:41:25.562Z,55.80
2022-07-27T17:44:12.406Z,55.40
2022-07-27T17:47:01.033Z,55.70
2022-07-27T17:49:47.838Z,55.60
2022-07-27T17:52:38.388Z,55.60
2022-07-27T17:55:25.460Z,55.30
2022-07-27T17:58:14.328Z,55.10
2022-07-27T18:01:00.972Z,55.50
2022-07-27T18:03:48.077Z,55.40
2022-07-27T18:06:34.621Z,55.80
2022-07-27T18:09:24.481Z,56.20
2022-07-27T18:12:11.345Z,56.50
2022-07-27T18:15:17.037Z,56.00
2022-07-27T18:18:04.399Z,56.40
2022-07-27T18:20:52.852Z,56.30
2022-07-27T18:23:39.449Z,56.50
2022-07-27T18:26:26.317Z,56.50
2022-07-27T18:29:14.955Z,56.30
2022-07-27T18:32:03.605Z,56.20
2022-07-27T18:34:50.325Z,56.70
2022-07-27T18:37:36.964Z,56.60
2022-07-27T18:40:23.889Z,56.80
2022-07-27T18:43:11.503Z,56.80
2022-07-27T18:45:58.758Z,57.10
2022-07-27T18:48:47.856Z,57.30
2022-07-27T18:51:34.491Z,57.50
2022-07-27T18:54:24.051Z,57.20
2022-07-27T18:57:10.854Z,57.30
2022-07-27T18:59:57.537Z,58.20
2022-07-27T19:02:43.981Z,57.80
2022-07-27T19:05:41.581Z,58.10
2022-07-27T19:08:28.367Z,58.20
2022-07-27T19:11:15.146Z,58.20
2022-07-27T19:14:01.981Z,58.40
2022-07-27T19:16:48.432Z,58.20
2022-07-27T19:19:35.504Z,58.50
2022-07-27T19:22:23.393Z,58.70
2022-07-27T19:25:10.154Z,58.60
2022-07-27T19:27:56.547Z,58.60
2022-07-27T19:30:43.086Z,58.50
2022-07-27T19:33:30.505Z,58.80
2022-07-27T19:36:16.873Z,59.00
2022-07-27T19:39:07.960Z,59.30
2022-07-27T19:41:54.871Z,59.30
2022-07-27T19:44:41.702Z,59.20
2022-07-27T19:47:28.147Z,59.20
2022-07-27T19:50:15.722Z,59.00
2022-07-27T19:53:02.652Z,59.60
2022-07-27T19:55:52.105Z,59.50
2022-07-27T19:58:38.969Z,59.60
2022-07-27T20:01:25.994Z,60.60
2022-07-27T20:04:12.874Z,60.00
2022-07-27T20:06:59.408Z,60.10
2022-07-27T20:09:45.889Z,60.80
2022-07-27T20:12:33.764Z,61.00
2022-07-27T20:15:20.488Z,61.00
2022-07-27T20:18:09.060Z,61.20
2022-07-27T20:20:55.873Z,61.10
2022-07-27T20:23:44.670Z,61.00
2022-07-27T20:26:31.833Z,61.10
2022-07-27T20:29:19.706Z,61.40
2022-07-27T20:32:07.764Z,61.10
2022-07-27T20:34:54.436Z,62.10
2022-07-27T20:37:41.146Z,61.40
2022-07-27T20:40:28.120Z,61.70
2022-07-27T20:43:14.642Z,61.90
2022-07-27T20:46:02.747Z,61.90
2022-07-27T20:48:49.363Z,61.90
2022-07-27T20:51:36.232Z,62.20
2022-07-27T20:54:28.922Z,62.10
2022-07-27T20:57:16.375Z,62.30
2022-07-27T21:00:02.949Z,62.20
2022-07-27T21:02:51.131Z,62.80
2022-07-27T21:05:37.724Z,62.80
2022-07-27T21:08:24.306Z,63.20
2022-07-27T21:11:15.477Z,63.10
2022-07-27T21:14:02.222Z,63.50
2022-07-27T21:16:49.058Z,63.50
2022-07-27T21:19:38.432Z,63.70
2022-07-27T21:22:25.233Z,63.80
2022-07-27T21:25:13.219Z,63.80
2022-07-27T21:28:02.440Z,64.00
2022-07-27T21:30:49.459Z,64.10
2022-07-27T21:33:39.569Z,64.20
2022-07-27T21:36:28.549Z,64.20
2022-07-27T21:39:16.346Z,64.80
2022-07-27T21:42:03.034Z,64.60
2022-07-27T21:44:49.689Z,64.60
2022-07-27T21:47:36.174Z,64.50
2022-07-27T21:50:22.778Z,64.60
2022-07-27T21:53:10.982Z,64.60
2022-07-27T21:55:57.487Z,64.90
2022-07-27T21:58:46.026Z,64.90
2022-07-27T22:01:32.851Z,65.00
2022-07-27T22:04:19.436Z,65.20
2022-07-27T22:07:06.456Z,65.10
2022-07-27T22:09:54.190Z,65.40
2022-07-27T22:12:41.024Z,65.30
2022-07-27T22:15:28.006Z,66.00
2022-07-27T22:18:14.746Z,66.10
2022-07-27T22:21:01.267Z,66.30
2022-07-27T22:23:47.700Z,67.50
2022-07-27T22:26:35.462Z,66.60
2022-07-27T22:29:22.226Z,66.80
2022-07-27T22:32:09.124Z,66.60
2022-07-27T22:34:55.650Z,66.80
2022-07-27T22:37:42.918Z,66.80
2022-07-27T22:40:29.750Z,66.80
2022-07-27T22:43:17.448Z,66.80
2022-07-27T22:46:04.584Z,67.10
2022-07-27T22:48:51.335Z,67.10
2022-07-27T22:51:49.452Z,67.00
2022-07-27T22:54:39.281Z,67.10
2022-07-27T22:57:26.272Z,68.10
2022-07-27T23:00:15.348Z,67.40
2022-07-27T23:03:02.116Z,67.50
2022-07-27T23:05:48.546Z,67.50
2022-07-27T23:08:35.389Z,67.40
2022-07-27T23:11:21.884Z,67.50
2022-07-27T23:14:08.605Z,67.80
2022-07-27T23:16:56.578Z,67.80
2022-07-27T23:19:43.286Z,67.70
2022-07-27T23:22:29.966Z,68.30
2022-07-27T23:25:16.230Z,68.30
2022-07-27T23:28:03.124Z,68.40
2022-07-27T23:30:51.330Z,68.50
2022-07-27T23:33:39.399Z,68.70
2022-07-27T23:36:27.742Z,68.80
2022-07-27T23:39:14.412Z,68.80
2022-07-27T23:42:01.000Z,68.80
2022-07-27T23:44:47.377Z,68.70
2022-07-27T23:47:37.280Z,68.90
2022-07-27T23:50:25.401Z,69.00
2022-07-27T23:53:12.068Z,69.40
2022-07-27T23:55:58.423Z,69.30
2022-07-27T23:58:45.794Z,69.70
